Steptoe Valley WMA, Nevada Weather observations

Data are for 10 minute period ending at time listed.
 Day   Time   Solar   Ave.   Ave.  Ave.  Vector  Max.   Baro.   Total    
  of    of     Rad.   Air    Rel.  Wind   Wind   Wind  Press.  Precip.   
Year   Day            Temp.  Hum.  Speed  Dir.   Gust                    
2015   (PST)  Kw/m2    F      %     mph   deg.    mph    mb.     in.     
-------------------------------------------------------------------------
 214   21:00   0.00   59.6    59    1.6   168     2.3   804.6    0.00 
 214   21:10   0.00   58.5    60    2.5   160     3.4   804.5    0.00 
 214   21:20   0.00   58.7    59    2.8   130     4.5   804.5    0.00 
 214   21:30   0.00   61.5    51    1.2   109     3.9   804.5    0.00 
 214   21:40   0.00   60.0    55    1.5   198     2.9   804.5    0.00 
 214   21:50   0.00   58.1    60    1.9   163     3.9   804.4    0.00 
 214   22:00   0.00   59.3    55    2.7   141     4.0   804.3    0.00 
 214   22:10   0.00   59.7    52    2.5   130     3.9   804.3    0.00 
 214   22:20   0.00   60.7    50    3.8   109     4.5   804.3    0.00 
 214   22:30   0.00   61.0    49    3.9   135     5.0   804.2    0.00 
 214   22:40   0.00   61.1    49    3.5   130     5.0   804.2    0.00 
 214   22:50   0.00   58.3    59    2.4   182     3.7   804.2    0.00 
 214   23:00   0.00   56.5    62    3.5   168     7.2   804.3    0.00 
 214   23:10   0.00   57.2    61    4.7   174     8.4   804.3    0.00 
 214   23:20   0.00   57.1    61    3.5   174     4.9   804.2    0.00 
 214   23:30   0.00   56.9    60    4.6   180     8.2   804.2    0.00 
 214   23:40   0.00   57.7    56    5.4   182     7.9   804.2    0.00 
 214   23:50   0.00   58.3    53    7.1   173    10.0   804.3    0.00 
 215    0:00   0.00   58.9    51    5.9   157     8.5   804.2    0.00 
 215    0:10   0.00   58.2    54    3.9   185     5.6   804.2    0.00 
 215    0:20   0.00   56.4    59    1.3   241     3.6   804.2    0.00 
 215    0:30   0.00   55.5    60    0.1   187     1.2   804.2    0.00 
 215    0:40   0.00   55.7    60    3.0   175     4.7   804.2    0.00 
 215    0:50   0.00   55.6    60    2.7   164     3.5   804.3    0.00 
 215    1:00   0.00   55.3    62    2.1   221     5.2   804.3    0.00 
 215    1:10   0.00   55.3    61    3.7   170     5.5   804.2    0.00 
 215    1:20   0.00   55.2    60    2.8   170     5.7   804.2    0.00 
 215    1:30   0.00   55.5    60    3.2    42     5.6   804.2    0.00 
 215    1:40   0.00   55.8    58    1.7   124     2.9   804.2    0.00 
 215    1:50   0.00   55.2    59    2.1    62     4.6   804.2    0.00 
 215    2:00   0.00   56.3    55    4.6    91     5.6   804.2    0.00 
 215    2:10   0.00   56.0    56    2.5   146     4.7   804.1    0.00 
 215    2:20   0.00   54.8    59    0.7   140     1.8   804.2    0.00 
 215    2:30   0.00   53.5    64    2.0   126     5.3   804.2    0.00 
 215    2:40   0.00   53.4    61    1.7    13     5.6   804.3    0.00 
 215    2:50   0.00   51.2    65    1.0   167     2.1   804.4    0.00 
 215    3:00   0.00   49.0    72    2.0   162     3.7   804.5    0.00 
 215    3:10   0.00   48.4    74    3.2   157     4.7   804.6    0.00 
 215    3:20   0.00   47.8    77    1.2   178     2.3   804.6    0.00 
 215    3:30   0.00   46.1    78    1.0   164     3.2   804.6    0.00 
 215    3:40   0.00   46.4    78    4.7   169     6.4   804.6    0.00 
 215    3:50   0.00   47.6    74    3.9   156     5.3   804.6    0.00 
 215    4:00   0.00   47.8    72    4.3   168     5.4   804.7    0.00 
 215    4:10   0.00   48.9    71    4.6   186     6.6   804.8    0.00 
 215    4:20   0.00   47.8    73    4.3   165     6.6   804.9    0.00 
 215    4:30   0.00   47.5    74    3.3   188     6.0   805.0    0.00 
 215    4:40   0.00   46.8    76    1.1   209     4.1   805.0    0.00 
 215    4:50   0.00   45.2    79    2.2   200     3.4   805.2    0.00 
 215    5:00   0.01   43.9    81    3.8   170     4.9   805.2    0.00 
 215    5:10   0.01   43.9    82    4.3   162     5.5   805.2    0.00 
 215    5:20   0.02   44.8    80    4.9   159     6.6   805.3    0.00 
 215    5:30   0.02   45.8    78    4.3   163     6.1   805.4    0.00 
 215    5:40   0.03   47.4    75    5.2   165     6.8   805.3    0.00 
 215    5:50   0.10   48.6    73    3.4   159     6.5   805.3    0.00 
 215    6:00   0.17   52.4    66    3.2   158     5.5   805.4    0.00 
 215    6:10   0.19   55.4    64    4.6   172     6.7   805.3    0.00 
 215    6:20   0.22   57.4    60    4.7   173     6.5   805.3    0.00 
 215    6:30   0.28   60.1    55    5.0   174     8.0   805.3    0.00 
 215    6:40   0.19   61.4    51    5.6   180     7.9   805.1    0.00 
 215    6:50   0.14   61.0    53    4.0   178     5.7   805.0    0.00 
 215    7:00   0.30   62.3    53    4.3   179     6.7   805.2    0.00 
 215    7:10   0.41   65.6    46    5.2   182     7.2   805.2    0.00 
 215    7:20   0.44   67.0    44    5.3   183     7.3   805.2    0.00 
 215    7:30   0.46   68.2    41    5.0   181     7.1   805.1    0.00 
 215    7:40   0.49   69.5    41    4.2   194     6.8   805.2    0.00 
 215    7:50   0.52   70.4    38    4.4   182     6.6   805.3    0.00 
 215    8:00   0.55   72.2    35    3.3   189     6.6   805.3    0.00 
 215    8:10   0.58   72.9    32    4.4   159     8.0   805.3    0.00 
 215    8:20   0.61   73.7    31    4.5   160     7.7   805.3    0.00 
 215    8:30   0.64   74.5    30    3.8   168     7.8   805.3    0.00 
 215    8:40   0.67   75.7    29    4.2   166     7.6   805.3    0.00 
 215    8:50   0.70   76.4    28    3.9   184     7.8   805.3    0.00 
 215    9:00   0.72   76.9    28    2.3   226     5.8   805.3    0.00 
 215    9:10   0.75   78.0    26    3.3   179     6.4   805.3    0.00 
 215    9:20   0.77   78.4    28    3.4   217     4.8   805.2    0.00 
 215    9:30   0.80   79.1    26    3.4     9     7.5   805.2    0.00 
 215    9:40   0.88   78.1    26    4.5    23     8.7   805.2    0.00 
 215    9:50   0.73   79.3    25    1.9   201     7.6   805.2    0.00 
 215   10:00   0.67   79.9    26    3.4   187     6.4   805.1    0.00 
 215   10:10   0.83   79.8    24    6.0   158    15.1   805.0    0.00 
 215   10:20   0.93   79.0    24    2.2    46     6.9   805.0    0.00 
 215   10:30   0.69   79.7    24    5.0    13    10.2   804.9    0.00 
 215   10:40   0.22   78.0    26    2.0   340     7.5   804.9    0.00 
 215   10:50   0.58   78.3    25    3.3   340     6.2   804.8    0.00 
 215   11:00   0.48   78.8    24    3.6   302     9.4   804.8    0.00 
 215   11:10   0.35   78.5    25    6.1   281    11.6   804.8    0.00 
 215   11:20   0.70   79.1    25    8.2   299    18.5   804.7    0.00 
 215   11:30   0.41   79.6    24    9.3   304    18.0   804.7    0.00 
 215   11:40   0.50   78.1    25    9.3   334    14.8   804.6    0.00 
 215   11:50   0.69   80.3    25    6.9   320    11.1   804.6    0.00 
 215   12:00   0.64   80.7    26    7.5   303    13.0   804.5    0.00 
 215   12:10   0.69   80.7    24    5.8   131    16.0   804.4    0.00 
 215   12:20   0.68   82.1    22    6.2   179    12.1   804.3    0.00 
 215   12:30   0.20   79.3    25    6.9   229    13.9   804.2    0.00 
 215   12:40   0.49   78.5    26    5.2   233     9.5   804.1    0.00 
 215   12:50   0.23   80.4    22    3.8   262    11.7   803.9    0.00 
 215   13:00   0.92   80.9    24    5.1   238    15.0   803.9    0.00 
 215   13:10   0.99   83.6    20    9.7   217    19.7   803.8    0.00 
 215   13:20   0.96   84.8    18    5.6   222    11.0   803.6    0.00 
 215   13:30   0.69   84.2    18    8.0   200    15.2   803.5    0.00 
 215   13:40   0.39   81.4    19    6.8   220    14.0   803.5    0.00 
 215   13:50   0.46   80.6    19    8.0   204    16.5   803.4    0.00 
 215   14:00   0.74   84.1    17    9.5   214    16.7   803.5    0.00 
 215   14:10   0.21   80.2    20    8.7   303    19.3   803.8    0.00 
 215   14:20   0.17   77.4    25   11.0   352    17.0   803.9    0.00 
 215   14:30   0.22   77.1    25   12.0   353    16.9   803.8    0.00 
 215   14:40   0.21   77.1    24   13.7   340    20.2   803.8    0.00 
 215   14:50   0.46   78.8    24   13.7     4    26.1   803.8    0.00 
 215   15:00   0.30   78.9    23   11.9     9    19.6   803.7    0.00 
 215   15:10   0.18   77.4    24    9.2   350    15.6   803.7    0.00 
 215   15:20   0.26   78.3    23    9.4    10    15.6   803.6    0.00 
 215   15:30   0.45   78.4    23    8.4   347    14.8   803.6    0.00 
 215   15:40   0.23   79.7    21   11.5   340    19.4   803.4    0.00 
 215   15:50   0.47   79.0    20   11.9   348    20.0   803.3    0.00 
 215   16:00   0.26   79.7    21   13.5   343    19.7   803.4    0.00 
 215   16:10   0.48   78.9    22   13.5   341    19.7   803.5    0.00 
 215   16:20   0.51   79.8    20   14.2   338    21.1   803.5    0.00 
 215   16:30   0.39   79.1    21   13.4   336    18.3   803.6    0.00 
 215   16:40   0.26   77.3    22   10.6   352    20.5   803.6    0.00 
 215   16:50   0.24   78.2    20   13.7     7    19.3   803.8    0.00 
 215   17:00   0.29   78.1    21   12.8     4    20.5   804.0    0.00 
 215   17:10   0.13   75.8    24   18.8     5    28.0   804.1    0.00 
 215   17:20   0.06   73.4    27   16.1   353    24.2   804.4    0.00 
 215   17:30   0.06   71.8    32   14.2   348    20.4   804.4    0.00 
 215   17:40   0.07   72.3    29   14.3     0    28.8   803.8    0.00 
 215   17:50   0.04   70.7    34    7.8   344    15.0   804.2    0.00 
 215   18:00   0.05   70.6    34    9.4   337    14.5   804.3    0.00 
 215   18:10   0.02   69.2    39   11.5   330    17.3   804.5    0.00 
 215   18:20   0.02   69.9    35   11.7     1    19.2   804.0    0.00 
 215   18:30   0.02   71.3    30    4.5   338    14.2   804.0    0.00 
 215   18:40   0.01   70.9    32    4.6    11     9.0   804.2    0.00 
 215   18:50   0.00   70.4    33    1.9   221     7.1   804.6    0.00 
 215   19:00   0.00   68.6    37    4.2   306     7.6   804.7    0.00 
 215   19:10   0.00   66.6    40    2.1   175     5.0   804.6    0.00 
 215   19:20   0.00   67.3    39    1.8    89     3.9   804.3    0.00 
 215   19:30   0.00   65.8    41    1.2   131     3.6   804.2    0.00 
 215   19:40   0.00   63.6    44    1.7     2     2.9   804.2    0.00 
 215   19:50   0.00   61.1    50    1.3   155     4.1   804.4    0.00 
 215   20:00   0.00   61.7    49    0.3    87     1.6   804.6    0.00 
 215   20:10   0.00   61.1    51    0.4   137     1.4   804.5    0.00 
 215   20:20   0.00   60.3    50    2.3   102     5.5   804.5    0.00 
 215   20:30   0.00   58.0    56    0.8   148     3.3   804.5    0.00 
 215   20:40   0.00   55.7    64    2.6   171     4.4   804.6    0.00 
 215   20:50   0.00   56.4    60    1.8   150     2.9   804.6    0.00 

Return to Steptoe Valley WMA graphs page.


Western Regional Climate Center,wrcc@dri.edu